createdAt,value
2022-12-06T00:01:58.092Z,92064.56
2022-12-06T00:05:02.336Z,92053.66
2022-12-06T00:08:06.805Z,92074.16
2022-12-06T00:11:17.035Z,92060.38
2022-12-06T00:14:21.181Z,92083.84
2022-12-06T00:17:25.443Z,92097.38
2022-12-06T00:20:28.513Z,92099.41
2022-12-06T00:23:31.870Z,92090.13
2022-12-06T00:26:40.512Z,92107.75
2022-12-06T00:29:43.712Z,92094.22
2022-12-06T00:32:47.305Z,92097.38
2022-12-06T00:36:02.107Z,92123.03
2022-12-06T00:39:09.264Z,92121.13
2022-12-06T00:42:12.458Z,92131.66
2022-12-06T00:45:15.521Z,92140.94
2022-12-06T00:48:19.319Z,92125.25
2022-12-06T00:51:24.053Z,92125.22
2022-12-06T00:54:27.119Z,92134.94
2022-12-06T00:57:30.892Z,92132.59
2022-12-06T01:00:34.318Z,92145.03
2022-12-06T01:03:37.501Z,92145.16
2022-12-06T01:06:41.707Z,92154.06
2022-12-06T01:09:45.504Z,92165.13
2022-12-06T01:12:49.263Z,92167.03
2022-12-06T01:15:54.763Z,92164.16
2022-12-06T01:19:01.806Z,92180.84
2022-12-06T01:22:05.471Z,92177.00
2022-12-06T01:25:08.861Z,92169.34
2022-12-06T01:28:11.837Z,92162.53
2022-12-06T01:31:16.197Z,92167.84
2022-12-06T01:34:19.541Z,92143.53
2022-12-06T01:37:23.590Z,92157.59
2022-12-06T01:40:27.351Z,92130.13
2022-12-06T01:43:34.228Z,92139.00
2022-12-06T01:46:42.388Z,92139.84
2022-12-06T01:50:13.860Z,92130.94
2022-12-06T01:53:21.346Z,92123.78
2022-12-06T01:56:27.708Z,92118.91
2022-12-06T01:59:32.088Z,92103.44
2022-12-06T02:02:36.178Z,92109.56
2022-12-06T02:05:40.977Z,92113.34
2022-12-06T02:08:46.327Z,92103.00
2022-12-06T02:11:50.179Z,92104.34
2022-12-06T02:14:55.008Z,92088.03
2022-12-06T02:18:17.639Z,92083.84
2022-12-06T02:21:43.377Z,92081.53
2022-12-06T02:25:04.693Z,92064.97
2022-12-06T02:28:50.196Z,92058.88
2022-12-06T02:32:01.246Z,92055.06
2022-12-06T02:35:21.728Z,92069.50
2022-12-06T02:38:48.826Z,92051.81
2022-12-06T02:42:01.381Z,92055.34
2022-12-06T02:45:13.441Z,92068.66
2022-12-06T02:48:18.833Z,92065.50
2022-12-06T02:51:23.443Z,92069.22
2022-12-06T02:54:29.509Z,92074.53
2022-12-06T02:57:43.697Z,92046.50
2022-12-06T03:00:51.642Z,92052.03
2022-12-06T03:04:15.664Z,92058.81
2022-12-06T03:07:36.552Z,92063.41
2022-12-06T03:10:51.408Z,92067.00
2022-12-06T03:14:06.254Z,92062.91
2022-12-06T03:17:34.716Z,92056.16
2022-12-06T03:20:57.417Z,92048.97
2022-12-06T03:24:01.125Z,92063.28
2022-12-06T03:27:13.193Z,92070.25
2022-12-06T03:30:17.212Z,92100.25
2022-12-06T03:33:26.407Z,92077.28
2022-12-06T03:36:31.907Z,92070.16
2022-12-06T03:39:47.321Z,92078.75
2022-12-06T03:42:50.859Z,92077.09
2022-12-06T03:46:05.629Z,92091.69
2022-12-06T03:49:33.506Z,92087.63
2022-12-06T03:52:39.491Z,92104.81
2022-12-06T03:55:43.221Z,92089.56
2022-12-06T03:58:47.564Z,92086.88
2022-12-06T04:01:50.564Z,92092.41
2022-12-06T04:04:54.078Z,92091.50
2022-12-06T04:07:57.296Z,92090.63
2022-12-06T04:11:00.850Z,92086.09
2022-12-06T04:14:03.838Z,92085.84
2022-12-06T04:17:25.373Z,92073.63
2022-12-06T04:20:30.525Z,92070.44
2022-12-06T04:23:38.929Z,92059.75
2022-12-06T04:26:41.927Z,92074.88
2022-12-06T04:30:04.043Z,92067.06
2022-12-06T04:33:25.204Z,92072.31
2022-12-06T04:36:47.283Z,92062.53
2022-12-06T04:39:50.438Z,92062.13
2022-12-06T04:43:12.442Z,92061.56
2022-12-06T04:46:16.494Z,92087.00
2022-12-06T04:49:19.975Z,92077.50
2022-12-06T04:52:23.954Z,92084.06
2022-12-06T04:55:27.868Z,92081.94
2022-12-06T04:58:30.897Z,92086.47
2022-12-06T05:01:34.668Z,92082.53
2022-12-06T05:04:39.196Z,92089.25
2022-12-06T05:07:43.039Z,92072.28
2022-12-06T05:10:55.333Z,92088.47
2022-12-06T05:14:00.428Z,92092.94
2022-12-06T05:17:04.184Z,92087.38
2022-12-06T05:20:08.537Z,92079.06
2022-12-06T05:23:12.502Z,92080.53
2022-12-06T05:26:21.111Z,92077.56
2022-12-06T05:29:24.080Z,92081.56
2022-12-06T05:32:27.129Z,92093.34
2022-12-06T05:35:30.770Z,92084.09
2022-12-06T05:38:34.485Z,92080.50
2022-12-06T05:41:37.996Z,92059.50
2022-12-06T05:44:42.307Z,92074.94
2022-12-06T05:47:45.365Z,92061.47
2022-12-06T05:50:50.416Z,92068.31
2022-12-06T05:53:53.559Z,92062.00
2022-12-06T05:56:57.920Z,92052.81
2022-12-06T06:00:01.082Z,92056.72
2022-12-06T06:03:09.904Z,92065.56
2022-12-06T06:06:13.378Z,92063.78
2022-12-06T06:09:17.430Z,92074.69
2022-12-06T06:12:21.111Z,92068.69
2022-12-06T06:15:25.344Z,92080.41
2022-12-06T06:18:28.297Z,92074.78
2022-12-06T06:21:32.614Z,92084.16
2022-12-06T06:24:41.804Z,92057.28
2022-12-06T06:27:45.843Z,92064.84
2022-12-06T06:30:48.827Z,92067.41
2022-12-06T06:33:52.996Z,92068.25
2022-12-06T06:36:56.350Z,92077.81
2022-12-06T06:40:01.506Z,92068.78
2022-12-06T06:43:24.081Z,92072.66
2022-12-06T06:46:27.820Z,92082.97
2022-12-06T06:49:30.766Z,92071.22
2022-12-06T06:52:34.794Z,92072.84
2022-12-06T06:55:38.267Z,92083.56
2022-12-06T06:58:42.637Z,92073.16
2022-12-06T07:01:46.414Z,92071.34
2022-12-06T07:04:50.438Z,92095.22
2022-12-06T07:07:54.351Z,92092.97
2022-12-06T07:10:58.979Z,92090.19
2022-12-06T07:14:04.611Z,92089.38
2022-12-06T07:17:08.049Z,92084.09
2022-12-06T07:20:11.568Z,92087.59
2022-12-06T07:23:15.783Z,92080.47
2022-12-06T07:26:21.707Z,92086.16
2022-12-06T07:29:25.854Z,92075.84
2022-12-06T07:32:29.066Z,92092.50
2022-12-06T07:36:03.411Z,92087.09
2022-12-06T07:38:56.879Z,92093.00
2022-12-06T07:42:19.172Z,92090.25
2022-12-06T07:45:29.033Z,92092.66
2022-12-06T07:48:33.252Z,92114.19
2022-12-06T07:51:36.609Z,92112.25
2022-12-06T07:54:40.050Z,92108.53
2022-12-06T07:57:44.328Z,92113.59
2022-12-06T08:00:47.485Z,92115.75
2022-12-06T08:03:51.253Z,92130.00
2022-12-06T08:06:55.197Z,92137.69
2022-12-06T08:09:58.649Z,92136.72
2022-12-06T08:13:04.581Z,92140.72
2022-12-06T08:16:09.493Z,92140.56
2022-12-06T08:19:12.573Z,92140.06
2022-12-06T08:22:15.769Z,92122.72
2022-12-06T08:25:19.101Z,92135.34
2022-12-06T08:28:22.785Z,92124.94
2022-12-06T08:31:26.397Z,92127.25
2022-12-06T08:34:30.285Z,92129.16
2022-12-06T08:37:35.729Z,92122.59
2022-12-06T08:40:39.302Z,92131.19
2022-12-06T08:43:43.329Z,92136.41
2022-12-06T08:46:48.109Z,92116.03
2022-12-06T08:49:52.018Z,92129.72
2022-12-06T08:52:56.057Z,92138.69
2022-12-06T08:56:02.748Z,92124.78
2022-12-06T08:59:07.660Z,92121.03
2022-12-06T09:02:14.190Z,92134.84
2022-12-06T09:05:17.505Z,92125.69
2022-12-06T09:08:21.265Z,92130.31
2022-12-06T09:11:26.910Z,92131.00
2022-12-06T09:14:30.690Z,92153.88
2022-12-06T09:17:34.433Z,92136.97
2022-12-06T09:20:41.554Z,92138.91
2022-12-06T09:23:45.411Z,92145.78
2022-12-06T09:26:49.820Z,92145.22
2022-12-06T09:29:53.711Z,92144.28
2022-12-06T09:32:57.741Z,92145.41
2022-12-06T09:36:06.412Z,92149.25
2022-12-06T09:39:18.608Z,92148.44
2022-12-06T09:42:46.526Z,92177.13
2022-12-06T09:46:07.631Z,92164.69
2022-12-06T09:49:23.318Z,92182.78
2022-12-06T09:52:45.307Z,92175.00
2022-12-06T09:56:06.750Z,92176.50
2022-12-06T09:59:31.908Z,92187.19
2022-12-06T10:02:47.949Z,92180.06
2022-12-06T10:06:02.388Z,92174.41
2022-12-06T10:09:15.270Z,92167.63
2022-12-06T10:12:31.954Z,92173.38
2022-12-06T10:15:59.355Z,92191.63
2022-12-06T10:19:15.100Z,92217.66
2022-12-06T10:22:25.576Z,92230.84
2022-12-06T10:25:43.373Z,92247.28
2022-12-06T10:29:23.159Z,92257.00
2022-12-06T10:32:48.948Z,92271.66
2022-12-06T10:36:00.719Z,92279.72
2022-12-06T10:39:15.025Z,92288.19
2022-12-06T10:42:42.735Z,92277.13
2022-12-06T10:46:09.225Z,92282.75
2022-12-06T10:49:40.557Z,92281.78
2022-12-06T10:53:01.660Z,92294.13
2022-12-06T10:56:28.572Z,92301.91
2022-12-06T10:59:52.338Z,92307.13
2022-12-06T11:03:18.344Z,92331.06
2022-12-06T11:06:32.930Z,92343.53
2022-12-06T11:09:49.875Z,92332.44
2022-12-06T11:13:14.565Z,92320.66
2022-12-06T11:19:50.078Z,92317.25
2022-12-06T11:23:06.403Z,92325.63
2022-12-06T11:26:25.165Z,92327.38
2022-12-06T11:29:29.645Z,92327.66
2022-12-06T11:32:33.060Z,92336.53
2022-12-06T11:35:36.043Z,92342.84
2022-12-06T11:38:42.489Z,92341.47
2022-12-06T11:41:50.389Z,92344.75
2022-12-06T11:45:06.599Z,92347.63
2022-12-06T11:48:18.252Z,92351.59
2022-12-06T11:51:26.617Z,92365.81
2022-12-06T11:54:37.590Z,92353.22
2022-12-06T11:57:49.091Z,92370.03
2022-12-06T12:01:01.176Z,92388.53
2022-12-06T12:04:30.135Z,92387.41
2022-12-06T12:07:35.595Z,92390.41
2022-12-06T12:10:42.078Z,92391.63
2022-12-06T12:13:53.532Z,92406.84
2022-12-06T12:17:03.283Z,92404.81
2022-12-06T12:20:09.347Z,92416.13
2022-12-06T12:23:23.328Z,92414.22
2022-12-06T12:26:37.422Z,92423.94
2022-12-06T12:29:41.141Z,92426.28
2022-12-06T12:32:46.092Z,92435.03
2022-12-06T12:35:57.177Z,92436.53
2022-12-06T12:39:01.810Z,92441.75
2022-12-06T12:42:05.369Z,92437.47
2022-12-06T12:45:20.562Z,92430.63
2022-12-06T12:48:27.172Z,92428.72
2022-12-06T12:51:36.028Z,92433.78
2022-12-06T12:54:40.009Z,92433.78
2022-12-06T12:57:46.465Z,92439.28
2022-12-06T13:00:51.157Z,92444.59
2022-12-06T13:04:06.376Z,92436.25
2022-12-06T13:07:28.493Z,92439.09
2022-12-06T13:10:33.718Z,92449.50
2022-12-06T13:13:48.833Z,92448.78
2022-12-06T13:16:55.833Z,92446.50
2022-12-06T13:19:59.644Z,92446.09
2022-12-06T13:23:25.925Z,92452.78
2022-12-06T13:26:38.067Z,92445.94
2022-12-06T13:29:54.630Z,92457.13
2022-12-06T13:33:21.195Z,92460.84
2022-12-06T13:36:26.386Z,92458.31
2022-12-06T13:39:32.618Z,92452.81
2022-12-06T13:42:35.955Z,92454.91
2022-12-06T13:45:50.228Z,92454.59
2022-12-06T13:48:59.878Z,92460.59
2022-12-06T13:52:04.122Z,92461.28
2022-12-06T13:55:25.659Z,92465.25
2022-12-06T13:58:29.807Z,92469.19
2022-12-06T14:01:39.779Z,92454.16
2022-12-06T14:04:45.017Z,92470.50
2022-12-06T14:07:48.222Z,92475.28
2022-12-06T14:10:51.379Z,92474.84
2022-12-06T14:14:01.453Z,92473.59
2022-12-06T14:17:26.800Z,92473.25
2022-12-06T14:20:37.657Z,92481.56
2022-12-06T14:23:49.017Z,92480.56
2022-12-06T14:26:53.179Z,92486.16
2022-12-06T14:30:24.793Z,92480.84
2022-12-06T14:33:29.180Z,92484.94
2022-12-06T14:36:41.440Z,92485.88
2022-12-06T14:39:53.252Z,92492.41
2022-12-06T14:43:05.393Z,92487.59
2022-12-06T14:46:13.126Z,92504.97
2022-12-06T14:49:40.302Z,92496.56
2022-12-06T14:53:00.320Z,92517.00
2022-12-06T14:56:21.671Z,92513.50
2022-12-06T15:00:12.811Z,92527.69
2022-12-06T15:03:13.640Z,92536.84
2022-12-06T15:06:23.183Z,92534.72
2022-12-06T15:09:31.224Z,92532.59
2022-12-06T15:12:58.461Z,92541.97
2022-12-06T15:16:10.943Z,92553.88
2022-12-06T15:19:17.424Z,92569.50
2022-12-06T15:22:25.574Z,92561.72
2022-12-06T15:25:29.196Z,92582.34
2022-12-06T15:28:33.274Z,92576.41
2022-12-06T15:31:37.914Z,92560.06
2022-12-06T15:34:42.181Z,92575.78
2022-12-06T15:37:50.315Z,92579.81
2022-12-06T15:40:56.950Z,92581.59
2022-12-06T15:44:00.719Z,92581.31
2022-12-06T15:47:04.611Z,92581.13
2022-12-06T15:50:09.330Z,92592.13
2022-12-06T15:53:19.167Z,92596.03
2022-12-06T15:56:24.797Z,92583.75
2022-12-06T15:59:28.654Z,92582.19
2022-12-06T16:02:32.754Z,92586.84
2022-12-06T16:05:36.625Z,92589.22
2022-12-06T16:08:40.952Z,92591.16
2022-12-06T16:11:44.983Z,92581.50
2022-12-06T16:14:49.011Z,92579.84
2022-12-06T16:17:52.902Z,92564.34
2022-12-06T16:20:57.710Z,92577.19
2022-12-06T16:24:19.228Z,92571.66
2022-12-06T16:27:22.784Z,92577.09
2022-12-06T16:30:35.909Z,92599.44
2022-12-06T16:33:39.137Z,92605.31
2022-12-06T16:37:06.955Z,92633.38
2022-12-06T16:40:20.435Z,92612.19
2022-12-06T16:43:24.142Z,92617.78
2022-12-06T16:46:38.409Z,92631.94
2022-12-06T16:49:46.995Z,92630.91
2022-12-06T16:52:55.123Z,92637.00
2022-12-06T16:55:58.212Z,92639.81
2022-12-06T16:59:02.254Z,92643.94
2022-12-06T17:02:37.425Z,92653.94
2022-12-06T17:05:41.106Z,92644.16
2022-12-06T17:08:44.460Z,92636.50
2022-12-06T17:12:13.602Z,92661.16
2022-12-06T17:15:21.294Z,92652.38
2022-12-06T17:18:25.031Z,92651.22
2022-12-06T17:21:28.367Z,92654.81
2022-12-06T17:24:33.296Z,92650.22
2022-12-06T17:27:37.495Z,92655.84
2022-12-06T17:30:44.171Z,92668.63
2022-12-06T17:33:49.414Z,92660.22
2022-12-06T17:36:53.399Z,92661.44
2022-12-06T17:39:56.429Z,92673.34
2022-12-06T17:43:02.749Z,92676.09
2022-12-06T17:46:09.398Z,92670.59
2022-12-06T17:49:25.498Z,92676.88
2022-12-06T17:52:29.120Z,92677.06
2022-12-06T17:55:32.880Z,92672.13
2022-12-06T17:58:35.895Z,92679.41
2022-12-06T18:02:12.995Z,92665.28
2022-12-06T18:05:03.473Z,92677.72
2022-12-06T18:08:07.074Z,92676.81
2022-12-06T18:11:10.212Z,92687.41
2022-12-06T18:14:14.278Z,92698.28
2022-12-06T18:17:17.428Z,92695.75
2022-12-06T18:20:20.858Z,92688.72
2022-12-06T18:23:24.296Z,92697.06
2022-12-06T18:26:28.704Z,92703.22
2022-12-06T18:29:33.145Z,92698.19
2022-12-06T18:32:36.606Z,92699.94
2022-12-06T18:35:40.391Z,92707.19
2022-12-06T18:38:44.612Z,92711.69
2022-12-06T18:41:48.636Z,92725.88
2022-12-06T18:44:57.919Z,92714.66
2022-12-06T18:48:02.914Z,92720.72
2022-12-06T18:51:08.760Z,92729.53
2022-12-06T18:54:14.408Z,92707.97
2022-12-06T18:57:17.789Z,92735.09
2022-12-06T19:00:22.063Z,92727.31
2022-12-06T19:03:25.981Z,92737.66
2022-12-06T19:06:32.909Z,92740.41
2022-12-06T19:09:36.643Z,92722.81
2022-12-06T19:12:40.181Z,92729.38
2022-12-06T19:15:43.966Z,92749.09
2022-12-06T19:18:51.922Z,92733.34
2022-12-06T19:21:57.400Z,92744.06
2022-12-06T19:25:01.916Z,92737.50
2022-12-06T19:28:06.317Z,92743.00
2022-12-06T19:31:13.530Z,92744.06
2022-12-06T19:34:20.334Z,92753.59
2022-12-06T19:37:23.379Z,92743.06
2022-12-06T19:40:27.506Z,92740.78
2022-12-06T19:43:50.130Z,92743.75
2022-12-06T19:46:53.813Z,92743.75
2022-12-06T19:49:58.740Z,92748.94
2022-12-06T19:53:02.798Z,92743.75
2022-12-06T19:56:09.297Z,92744.81
2022-12-06T19:59:12.631Z,92744.06
2022-12-06T20:02:16.741Z,92742.72
2022-12-06T20:05:20.758Z,92744.06
2022-12-06T20:08:24.732Z,92737.53
2022-12-06T20:11:47.737Z,92734.78
2022-12-06T20:14:51.708Z,92727.16
2022-12-06T20:17:56.087Z,92727.16
2022-12-06T20:20:59.833Z,92749.25
2022-12-06T20:24:03.517Z,92730.44
2022-12-06T20:27:07.607Z,92741.50
2022-12-06T20:30:12.590Z,92747.88
2022-12-06T20:33:16.084Z,92738.72
2022-12-06T20:36:22.119Z,92740.47
2022-12-06T20:39:27.946Z,92745.97
2022-12-06T20:42:33.521Z,92751.69
2022-12-06T20:45:37.284Z,92761.38
2022-12-06T20:48:42.090Z,92759.47
2022-12-06T20:51:51.062Z,92775.00
2022-12-06T20:54:56.964Z,92777.94
2022-12-06T20:58:00.767Z,92778.81
2022-12-06T21:01:05.588Z,92778.13
2022-12-06T21:04:12.434Z,92788.44
2022-12-06T21:07:15.884Z,92784.81
2022-12-06T21:10:18.970Z,92798.50
2022-12-06T21:13:22.980Z,92792.97
2022-12-06T21:16:29.435Z,92815.41
2022-12-06T21:19:32.826Z,92804.53
2022-12-06T21:22:35.775Z,92810.25
2022-12-06T21:25:40.102Z,92814.91
2022-12-06T21:28:43.863Z,92815.56
2022-12-06T21:31:48.576Z,92819.00
2022-12-06T21:34:52.540Z,92821.78
2022-12-06T21:37:56.267Z,92842.00
2022-12-06T21:41:08.677Z,92844.59
2022-12-06T21:44:12.560Z,92847.34
2022-12-06T21:47:15.482Z,92849.41
2022-12-06T21:50:18.850Z,92852.72
2022-12-06T21:53:21.893Z,92845.97
2022-12-06T21:56:28.104Z,92853.19
2022-12-06T21:59:31.834Z,92864.44
2022-12-06T22:02:35.407Z,92860.81
2022-12-06T22:05:42.109Z,92864.78
2022-12-06T22:08:46.830Z,92857.84
2022-12-06T22:11:49.835Z,92870.13
2022-12-06T22:14:54.090Z,92873.75
2022-12-06T22:17:57.047Z,92887.91
2022-12-06T22:21:06.609Z,92889.28
2022-12-06T22:24:09.677Z,92888.41
2022-12-06T22:27:13.621Z,92905.97
2022-12-06T22:30:17.395Z,92902.22
2022-12-06T22:33:23.361Z,92892.53
2022-12-06T22:36:28.395Z,92910.81
2022-12-06T22:39:31.948Z,92905.47
2022-12-06T22:42:35.995Z,92908.25
2022-12-06T22:45:39.708Z,92918.13
2022-12-06T22:48:43.887Z,92918.63
2022-12-06T22:51:47.748Z,92916.41
2022-12-06T22:54:50.698Z,92921.56
2022-12-06T22:57:54.566Z,92922.09
2022-12-06T23:00:57.645Z,92920.88
2022-12-06T23:04:03.816Z,92927.44
2022-12-06T23:07:06.936Z,92924.00
2022-12-06T23:10:11.109Z,92918.81
2022-12-06T23:13:14.786Z,92933.16
2022-12-06T23:16:20.913Z,92939.19
2022-12-06T23:19:24.788Z,92936.59
2022-12-06T23:22:31.780Z,92939.38
2022-12-06T23:25:35.744Z,92940.41
2022-12-06T23:28:40.088Z,92938.50
2022-12-06T23:31:45.688Z,92939.34
2022-12-06T23:34:48.816Z,92942.59
2022-12-06T23:37:52.167Z,92936.94
2022-12-06T23:40:55.882Z,92939.53
2022-12-06T23:44:00.411Z,92942.81
2022-12-06T23:47:03.537Z,92944.69
2022-12-06T23:50:08.471Z,92948.84
2022-12-06T23:53:11.510Z,92955.06
2022-12-06T23:56:17.600Z,92950.72
2022-12-06T23:59:21.364Z,92956.25
